Time;durP1;ratioP1;P1;durP2;ratioP2;P2;SDS_P1;SDS_P2;PMS_P1;PMS_P2;Temp;Humidity;BMP_temperature;BMP_pressure;BME280_temperature;BME280_humidity;BME280_pressure;Samples;Min_cycle;Max_cycle;Signal;HPM_P1;HPM_P2
2023/07/01 00:01:32;;;;;;;13.07;5.07;;;;;;;18.05;74.37;98642.22;5091257;28;20459;-45
2023/07/01 00:03:58;;;;;;;16.25;3.10;;;;;;;18.17;74.69;98646.34;5092883;28;20020;-45
2023/07/01 00:06:23;;;;;;;14.10;2.88;;;;;;;18.24;75.03;98626.75;5091559;28;20111;-45
2023/07/01 00:08:49;;;;;;;7.15;2.72;;;;;;;18.02;74.81;98637.44;5091111;28;20036;-45
2023/07/01 00:11:15;;;;;;;6.55;2.40;;;;;;;17.93;75.58;98647.69;5092443;28;20024;-45
2023/07/01 00:13:40;;;;;;;10.57;2.30;;;;;;;18.12;75.26;98648.94;5091058;28;20025;-45
2023/07/01 00:16:06;;;;;;;9.20;2.78;;;;;;;18.29;74.32;98642.72;5090980;28;20024;-45
2023/07/01 00:18:32;;;;;;;47.63;35.80;;;;;;;18.60;73.98;98638.50;5091033;28;20501;-45
2023/07/01 00:20:57;;;;;;;15.25;3.58;;;;;;;19.06;72.35;98640.72;5092328;28;20032;-45
2023/07/01 00:23:24;;;;;;;12.23;2.70;;;;;;;19.21;71.70;98635.47;5092244;28;20512;-45
2023/07/01 00:25:50;;;;;;;13.52;2.53;;;;;;;18.90;71.99;98634.50;5092241;28;20034;-45
2023/07/01 00:28:15;;;;;;;14.75;3.08;;;;;;;18.90;72.05;98635.28;5092191;28;20020;-45
2023/07/01 00:30:41;;;;;;;7.30;2.58;;;;;;;18.95;71.07;98634.50;5091922;28;20563;-45
2023/07/01 00:33:07;;;;;;;10.77;2.13;;;;;;;18.73;71.91;98635.41;5092168;28;20435;-45
2023/07/01 00:35:33;;;;;;;13.68;3.28;;;;;;;18.47;72.52;98636.25;5090735;28;20020;-45
2023/07/01 00:37:59;;;;;;;16.27;4.32;;;;;;;18.58;73.40;98642.47;5090697;28;20115;-45
2023/07/01 00:40:25;;;;;;;10.43;2.15;;;;;;;18.55;73.20;98647.22;5090687;28;20016;-45
2023/07/01 00:42:51;;;;;;;17.00;3.45;;;;;;;18.18;74.04;98644.50;5092038;28;20024;-45
2023/07/01 00:45:16;;;;;;;10.95;2.30;;;;;;;18.01;75.05;98649.91;5090682;28;20024;-45
2023/07/01 00:47:42;;;;;;;6.05;3.80;;;;;;;17.75;74.40;98644.28;5090634;28;20034;-45
2023/07/01 00:50:13;;;;;;;12.75;3.65;;;;;;;17.46;74.93;98646.31;5091901;28;20028;-45
2023/07/01 00:52:39;;;;;;;17.42;4.15;;;;;;;17.66;75.79;98647.63;5091770;28;20077;-45
2023/07/01 00:55:09;;;;;;;15.43;4.53;;;;;;;18.12;74.73;98634.88;5091833;28;20021;-45
2023/07/01 00:57:36;;;;;;;11.50;3.50;;;;;;;18.36;73.27;98641.47;5090356;28;20065;-45
2023/07/01 01:00:08;;;;;;;11.98;4.40;;;;;;;18.44;71.54;98634.91;5091846;28;20023;-45
2023/07/01 01:03:20;;;;;;;24.05;4.18;;;;;;;18.63;71.12;98637.97;5092042;28;20073;-45
2023/07/01 01:06:12;;;;;;;12.63;3.45;;;;;;;18.90;70.50;98632.63;5038117;28;20499;-45
2023/07/01 01:09:01;;;;;;;11.85;4.38;;;;;;;19.41;68.61;98636.63;5022047;28;20044;-45
2023/07/01 01:11:31;;;;;;;11.00;2.78;;;;;;;19.66;67.85;98635.91;5034806;28;20033;-45
2023/07/01 01:14:00;;;;;;;11.65;3.22;;;;;;;19.81;67.21;98633.34;5053389;28;20538;-45
2023/07/01 01:16:26;;;;;;;6.93;2.70;;;;;;;19.94;66.77;98629.38;5036383;28;20144;-45
2023/07/01 01:18:53;;;;;;;10.18;2.40;;;;;;;19.65;67.34;98627.13;5020101;28;20033;-45
2023/07/01 01:21:21;;;;;;;7.70;2.00;;;;;;;19.27;68.24;98631.75;5053100;28;20042;-45
2023/07/01 01:24:06;;;;;;;10.40;3.13;;;;;;;19.05;67.98;98637.22;5053161;28;20124;-45
2023/07/01 01:26:40;;;;;;;;;;;;;;;18.59;70.52;98633.41;5053576;28;20090;-45
2023/07/01 01:29:06;;;;;;;6.72;5.50;;;;;;;18.47;71.41;98630.94;5036227;28;20408;-45
2023/07/01 01:31:33;;;;;;;12.18;2.80;;;;;;;18.23;70.99;98633.09;5052729;28;20056;-45
2023/07/01 01:33:59;;;;;;;4.85;2.25;;;;;;;17.81;72.28;98625.75;5052985;28;20082;-45
2023/07/01 01:36:51;;;;;;;5.10;2.13;;;;;;;17.51;73.53;98624.34;5036229;28;20033;-45
2023/07/01 01:39:23;;;;;;;17.02;3.20;;;;;;;17.54;74.47;98626.50;5052983;28;20033;-45
2023/07/01 01:42:08;;;;;;;10.65;2.17;;;;;;;17.66;74.35;98629.81;5084911;28;20101;-45
2023/07/01 01:44:47;;;;;;;12.63;2.95;;;;;;;17.80;73.66;98627.59;5095327;28;20371;-45
2023/07/01 01:47:17;;;;;;;12.18;2.80;;;;;;;17.69;74.00;98618.72;5095257;28;20077;-45
2023/07/01 01:49:45;;;;;;;10.15;2.40;;;;;;;17.68;72.96;98621.63;5093829;28;20539;-44
2023/07/01 01:52:16;;;;;;;16.35;2.65;;;;;;;17.79;73.54;98626.00;5093776;28;20490;-45
2023/07/01 01:54:47;;;;;;;16.27;3.03;;;;;;;18.00;72.70;98626.25;5095050;28;20036;-45
2023/07/01 01:57:15;;;;;;;8.55;2.78;;;;;;;18.09;72.82;98622.06;5094879;28;20036;-45
2023/07/01 01:59:43;;;;;;;18.00;3.45;;;;;;;18.28;71.43;98612.69;5093664;28;20472;-45
2023/07/01 02:02:09;;;;;;;7.78;2.53;;;;;;;17.91;70.55;98608.13;5093614;28;20396;-45
2023/07/01 02:04:35;;;;;;;13.88;3.88;;;;;;;17.60;72.10;98612.25;5094881;28;20016;-45
2023/07/01 02:07:00;;;;;;;8.55;2.53;;;;;;;17.53;74.90;98603.69;5094840;28;20101;-45
2023/07/01 02:09:28;;;;;;;15.35;4.43;;;;;;;17.24;76.18;98609.13;5094791;28;20023;-45
2023/07/01 02:11:57;;;;;;;13.63;4.13;;;;;;;16.86;79.10;98607.28;5094632;28;20024;-44
2023/07/01 02:14:23;;;;;;;10.70;3.20;;;;;;;16.78;81.17;98621.72;5094643;28;20111;-45
2023/07/01 02:16:50;;;;;;;6.65;2.55;;;;;;;16.65;82.22;98616.78;5093269;28;20596;-44
2023/07/01 02:19:15;;;;;;;9.05;3.00;;;;;;;16.48;82.63;98612.28;5094587;28;20036;-45
2023/07/01 02:21:41;;;;;;;17.95;6.47;;;;;;;16.52;84.11;98623.16;5093968;28;20066;-45
2023/07/01 02:24:07;;;;;;;13.50;9.27;;;;;;;16.70;84.74;98622.13;5075813;28;20028;-44
2023/07/01 02:26:32;;;;;;;7.45;2.67;;;;;;;16.89;84.52;98620.06;5094954;28;20051;-44
2023/07/01 02:28:58;;;;;;;7.47;2.60;;;;;;;16.45;81.61;98622.53;5094393;28;20393;-45
2023/07/01 02:31:24;;;;;;;13.85;3.90;;;;;;;16.13;84.15;98626.50;5092803;28;20400;-44
2023/07/01 02:33:50;;;;;;;10.73;2.60;;;;;;;15.89;84.55;98617.84;5094363;28;20058;-45
2023/07/01 02:36:16;;;;;;;8.57;2.92;;;;;;;15.64;85.62;98626.09;5094152;28;20024;-45
2023/07/01 02:38:42;;;;;;;10.90;2.83;;;;;;;15.63;87.29;98619.19;5094230;28;20043;-45
2023/07/01 02:41:08;;;;;;;10.02;3.10;;;;;;;15.67;87.32;98611.59;5092969;28;20490;-45
2023/07/01 02:43:34;;;;;;;13.25;2.67;;;;;;;15.63;87.43;98619.19;5094092;28;20497;-45
2023/07/01 02:45:59;;;;;;;8.75;2.70;;;;;;;15.78;87.76;98611.59;5094089;28;20031;-44
2023/07/01 02:48:25;;;;;;;11.27;4.75;;;;;;;15.83;87.72;98610.06;5075804;28;20077;-44
2023/07/01 02:50:51;;;;;;;9.63;3.20;;;;;;;16.00;87.39;98610.09;5092652;28;20028;-45
2023/07/01 02:53:18;;;;;;;12.23;3.22;;;;;;;16.18;87.78;98612.56;5092766;28;20028;-45
2023/07/01 02:55:44;;;;;;;10.40;2.92;;;;;;;16.33;87.25;98609.38;5093928;28;20020;-45
2023/07/01 02:58:09;;;;;;;13.00;4.45;;;;;;;16.50;86.72;98607.53;5075564;28;20497;-45
2023/07/01 03:00:35;;;;;;;19.08;15.18;;;;;;;16.33;85.40;98601.41;5094042;28;20028;-44
2023/07/01 03:03:06;;;;;;;10.98;4.82;;;;;;;16.32;85.57;98602.47;5092405;28;20067;-45
2023/07/01 03:05:33;;;;;;;16.30;5.57;;;;;;;16.14;85.78;98601.66;5093731;28;20028;-44
2023/07/01 03:07:59;;;;;;;19.45;5.65;;;;;;;16.18;86.82;98599.31;5093623;28;20024;-45
2023/07/01 03:10:25;;;;;;;6.82;2.47;;;;;;;16.42;86.55;98591.22;5093571;28;20073;-45
2023/07/01 03:12:50;;;;;;;11.85;3.42;;;;;;;16.35;85.45;98601.97;5093574;28;20110;-45
2023/07/01 03:15:16;;;;;;;15.52;3.47;;;;;;;16.23;85.49;98599.41;5093456;28;20059;-44
2023/07/01 03:17:42;;;;;;;9.25;2.85;;;;;;;16.27;85.08;98602.38;5092073;28;20221;-44
2023/07/01 03:20:20;;;;;;;11.80;2.55;;;;;;;16.20;84.62;98599.06;5093441;28;20016;-45
2023/07/01 03:22:45;;;;;;;11.77;3.05;;;;;;;16.17;84.25;98595.84;5093707;28;20050;-44
2023/07/01 03:25:11;;;;;;;9.68;2.80;;;;;;;16.13;82.63;98597.38;5093297;28;20049;-44
2023/07/01 03:27:37;;;;;;;12.15;2.63;;;;;;;16.08;81.31;98592.00;5091968;28;20031;-44
2023/07/01 03:30:05;;;;;;;4.35;2.22;;;;;;;15.99;80.86;98582.84;5093575;28;20378;-45
2023/07/01 03:32:31;;;;;;;9.10;2.60;;;;;;;15.72;79.93;98580.78;5093015;28;20403;-45
2023/07/01 03:34:56;;;;;;;11.00;2.83;;;;;;;15.45;79.58;98572.53;5093047;28;20027;-44
2023/07/01 03:37:22;;;;;;;8.15;2.80;;;;;;;15.24;80.46;98579.28;5092923;28;20016;-45
2023/07/01 03:39:49;;;;;;;8.18;3.70;;;;;;;15.07;80.98;98578.38;5091755;28;20043;-45
2023/07/01 03:42:15;;;;;;;11.80;3.20;;;;;;;14.87;80.91;98578.72;5091648;28;20032;-47
2023/07/01 03:44:40;;;;;;;17.73;3.28;;;;;;;14.66;82.02;98577.47;5093010;28;20028;-47
2023/07/01 03:47:06;;;;;;;15.15;2.90;;;;;;;14.57;82.85;98577.03;5093006;28;20422;-47
2023/07/01 03:49:32;;;;;;;11.18;2.88;;;;;;;14.62;83.97;98578.97;5092946;28;20485;-47
2023/07/01 03:51:57;;;;;;;17.27;3.78;;;;;;;14.73;84.61;98578.97;5092877;28;20020;-47
2023/07/01 03:54:23;;;;;;;7.82;2.85;;;;;;;14.98;84.65;98584.00;5091482;28;20032;-47
2023/07/01 03:56:48;;;;;;;11.05;3.30;;;;;;;15.08;83.29;98575.50;5092749;28;20028;-47
2023/07/01 03:59:14;;;;;;;9.90;2.92;;;;;;;14.90;82.53;98576.44;5091387;28;20062;-47
2023/07/01 04:01:40;;;;;;;8.32;2.85;;;;;;;14.62;81.00;98578.97;5092635;28;20032;-47
2023/07/01 04:04:05;;;;;;;18.05;4.05;;;;;;;14.29;81.27;98575.81;5091301;28;20032;-47
2023/07/01 04:06:31;;;;;;;8.95;2.78;;;;;;;14.14;82.91;98576.22;5092824;28;20024;-47
2023/07/01 04:08:57;;;;;;;11.27;2.80;;;;;;;14.19;83.29;98578.19;5092544;28;20052;-46
2023/07/01 04:11:23;;;;;;;16.83;3.80;;;;;;;14.37;84.03;98577.31;5091155;28;20028;-47
2023/07/01 04:13:49;;;;;;;9.90;2.85;;;;;;;14.75;83.29;98584.84;5092392;28;20024;-46
2023/07/01 04:16:14;;;;;;;12.18;4.10;;;;;;;14.98;82.80;98570.81;5092547;28;20031;-47
2023/07/01 04:18:40;;;;;;;8.65;4.53;;;;;;;15.11;82.67;98572.41;5091042;28;20093;-47
2023/07/01 04:21:05;;;;;;;14.90;3.13;;;;;;;15.23;82.37;98575.03;5092252;28;20027;-47
2023/07/01 04:23:34;;;;;;;14.35;3.63;;;;;;;15.32;82.38;98567.53;5092317;28;20020;-46
2023/07/01 04:25:59;;;;;;;13.10;3.38;;;;;;;15.50;82.42;98564.72;5092268;28;20031;-46
2023/07/01 04:28:25;;;;;;;8.57;3.10;;;;;;;16.07;81.63;98563.13;5092153;28;20024;-46
2023/07/01 04:30:50;;;;;;;17.48;3.70;;;;;;;16.96;78.38;98555.25;5090625;28;20028;-46
2023/07/01 04:33:16;;;;;;;31.02;4.75;;;;;;;17.76;74.88;98550.31;5092513;28;20040;-46
2023/07/01 04:35:42;;;;;;;25.52;4.20;;;;;;;18.45;72.23;98550.66;5092100;28;20469;-47
2023/07/01 04:38:07;;;;;;;27.60;7.22;;;;;;;18.94;68.95;98550.47;5090663;28;20386;-47
2023/07/01 04:40:33;;;;;;;20.83;4.57;;;;;;;18.93;68.04;98546.19;5090969;28;20386;-45
2023/07/01 04:42:58;;;;;;;24.40;6.45;;;;;;;18.88;68.29;98546.19;5090729;28;20118;-45
2023/07/01 04:45:24;;;;;;;19.40;4.50;;;;;;;18.98;69.09;98545.44;5091320;28;20030;-45
2023/07/01 04:47:50;;;;;;;18.50;4.65;;;;;;;19.38;68.44;98549.31;5090620;28;20119;-45
2023/07/01 04:50:16;;;;;;;34.45;6.90;;;;;;;19.84;66.98;98542.28;5091892;28;20826;-45
2023/07/01 04:52:43;;;;;;;22.52;12.15;;;;;;;20.59;64.46;98540.97;5091901;28;20031;-45
2023/07/01 04:55:09;;;;;;;11.52;3.33;;;;;;;21.38;61.08;98542.03;5091807;28;20112;-45
2023/07/01 04:57:35;;;;;;;16.15;10.43;;;;;;;21.62;59.30;98539.53;5091845;28;20103;-45
2023/07/01 05:00:10;;;;;;;10.15;3.35;;;;;;;22.08;57.08;98541.91;5092116;28;20078;-45
2023/07/01 05:02:35;;;;;;;;;;;;;;;22.51;58.70;98527.94;5092482;28;20056;-45
2023/07/01 05:05:01;;;;;;;9.25;2.97;;;;;;;22.73;54.95;98538.13;5091714;28;19950;-45
2023/07/01 05:07:27;;;;;;;8.40;2.97;;;;;;;23.11;53.60;98528.38;5091800;28;20118;-45
2023/07/01 05:09:52;;;;;;;13.55;3.67;;;;;;;23.50;52.27;98527.34;5090452;28;20040;-45
2023/07/01 05:12:18;;;;;;;10.27;2.83;;;;;;;23.86;50.94;98524.16;5091736;28;20502;-45
2023/07/01 05:14:43;;;;;;;11.93;3.22;;;;;;;23.88;48.40;98526.56;5091762;28;20516;-45
2023/07/01 05:17:09;;;;;;;8.98;2.70;;;;;;;23.63;48.00;98523.13;5090702;28;20032;-45
2023/07/01 05:19:35;;;;;;;11.02;3.13;;;;;;;23.80;49.00;98521.84;5090385;28;20054;-45
2023/07/01 05:22:00;;;;;;;10.15;2.75;;;;;;;24.60;47.91;98522.69;5091515;28;20066;-45
2023/07/01 05:24:26;;;;;;;13.43;3.00;;;;;;;25.22;45.17;98506.22;5091634;28;20439;-45
2023/07/01 05:26:52;;;;;;;9.88;2.85;;;;;;;25.24;44.80;98512.88;5090296;28;20024;-45
2023/07/01 05:29:20;;;;;;;14.43;2.95;;;;;;;25.05;44.46;98512.97;5091565;28;20072;-45
2023/07/01 05:31:48;;;;;;;8.00;2.65;;;;;;;25.10;44.59;98506.69;5090024;28;20044;-45
2023/07/01 05:34:14;;;;;;;8.07;2.90;;;;;;;24.98;44.59;98509.88;5091407;28;20032;-45
2023/07/01 05:36:40;;;;;;;11.80;2.90;;;;;;;25.33;45.87;98512.94;5073336;28;20028;-45
2023/07/01 05:39:05;;;;;;;9.10;3.00;;;;;;;26.26;44.79;98508.94;5091485;28;20385;-45
2023/07/01 05:41:31;;;;;;;15.00;3.22;;;;;;;27.41;42.83;98509.06;5090237;28;20194;-46
2023/07/01 05:43:59;;;;;;;13.40;3.08;;;;;;;28.57;40.33;98518.31;5091529;28;20042;-45
2023/07/01 05:46:26;;;;;;;8.27;2.72;;;;;;;29.03;37.69;98516.66;5091435;28;20368;-46
2023/07/01 05:48:52;;;;;;;9.13;3.03;;;;;;;28.65;38.99;98517.47;5091367;28;20070;-46
2023/07/01 05:51:18;;;;;;;9.10;2.85;;;;;;;28.72;39.29;98522.38;5090035;28;20459;-46
2023/07/01 05:53:47;;;;;;;11.00;2.58;;;;;;;29.10;39.16;98511.53;5090133;28;20095;-46
2023/07/01 05:56:12;;;;;;;10.50;2.90;;;;;;;29.17;39.16;98516.44;5091345;28;20032;-46
2023/07/01 05:58:38;;;;;;;12.05;2.78;;;;;;;29.65;37.99;98507.81;5095047;28;20028;-45
2023/07/01 06:01:04;;;;;;;8.70;2.72;;;;;;;30.45;36.07;98508.69;5093624;28;20054;-45
2023/07/01 06:03:29;;;;;;;18.23;4.50;;;;;;;31.24;35.56;98511.94;5094993;28;20363;-46
2023/07/01 06:05:55;;;;;;;12.18;2.78;;;;;;;31.19;34.10;98512.22;5094862;28;20450;-46
2023/07/01 06:08:21;;;;;;;18.13;3.78;;;;;;;31.94;33.90;98516.28;5094856;28;20378;-46
2023/07/01 06:10:46;;;;;;;18.63;3.75;;;;;;;33.02;32.29;98510.81;5095309;28;20047;-46
2023/07/01 06:13:12;;;;;;;20.50;3.08;;;;;;;33.98;31.30;98509.34;5094729;28;20547;-46
2023/07/01 06:15:37;;;;;;;28.50;3.88;;;;;;;34.29;31.46;98510.34;5094645;28;20024;-46
2023/07/01 06:18:03;;;;;;;17.13;3.80;;;;;;;34.88;30.11;98510.13;5093240;28;20052;-46
2023/07/01 06:20:29;;;;;;;13.32;2.75;;;;;;;35.20;29.09;98505.91;5094620;28;20056;-46
2023/07/01 06:22:54;;;;;;;9.43;2.72;;;;;;;34.62;30.27;98506.19;5094630;28;20016;-46
2023/07/01 06:25:20;;;;;;;12.18;2.90;;;;;;;32.49;32.12;98515.78;5093203;28;20088;-46
2023/07/01 06:27:45;;;;;;;15.02;3.33;;;;;;;31.73;33.66;98507.56;5093150;28;20494;-46
2023/07/01 06:30:11;;;;;;;125.43;87.93;;;;;;;33.11;32.12;98518.84;5094393;28;20057;-46
2023/07/01 06:32:37;;;;;;;5.93;3.42;;;;;;;34.57;29.78;98512.75;5092762;28;20138;-46
2023/07/01 06:35:03;;;;;;;16.73;3.35;;;;;;;35.63;28.12;98502.16;5094366;28;20021;-46
2023/07/01 06:37:28;;;;;;;7.90;2.28;;;;;;;33.94;29.48;98503.03;5092887;28;20052;-46
2023/07/01 06:39:54;;;;;;;7.53;2.20;;;;;;;32.00;31.72;98517.63;5094208;28;20107;-46
2023/07/01 06:42:20;;;;;;;12.20;2.50;;;;;;;30.67;34.50;98513.66;5094171;28;20053;-46
2023/07/01 06:44:45;;;;;;;8.75;2.40;;;;;;;30.00;35.55;98514.84;5092835;28;20367;-46
2023/07/01 06:47:11;;;;;;;19.40;3.78;;;;;;;29.80;36.26;98516.47;5092728;28;20386;-46
2023/07/01 06:49:36;;;;;;;17.60;3.63;;;;;;;30.04;35.54;98513.06;5092731;28;20020;-46
2023/07/01 06:52:02;;;;;;;10.63;2.10;;;;;;;29.98;35.53;98509.81;5092989;28;20031;-46
2023/07/01 06:54:28;;;;;;;11.23;2.50;;;;;;;29.30;35.93;98511.91;5093990;28;20016;-46
2023/07/01 06:56:54;;;;;;;8.23;2.17;;;;;;;28.35;35.84;98516.59;5092446;28;20020;-46
2023/07/01 06:59:20;;;;;;;9.55;2.88;;;;;;;27.46;38.81;98514.28;5092580;28;20114;-45
2023/07/01 07:01:45;;;;;;;10.23;2.00;;;;;;;27.46;39.32;98516.97;5093817;28;20024;-46
2023/07/01 07:04:11;;;;;;;9.23;2.65;;;;;;;27.82;38.67;98518.56;5093751;28;20402;-45
2023/07/01 07:06:37;;;;;;;4.18;1.77;;;;;;;28.79;36.81;98512.63;5093701;28;20020;-46
2023/07/01 07:09:03;;;;;;;5.07;1.92;;;;;;;29.63;35.44;98515.47;5093099;28;20020;-46
2023/07/01 07:11:30;;;;;;;6.53;1.90;;;;;;;30.74;34.15;98515.03;5093687;28;20040;-46
2023/07/01 07:13:55;;;;;;;3.63;1.65;;;;;;;31.38;32.76;98508.88;5092327;28;20103;-46
2023/07/01 07:16:21;;;;;;;9.65;2.30;;;;;;;31.35;33.04;98506.88;5092147;28;20135;-46
2023/07/01 07:18:46;;;;;;;12.35;2.40;;;;;;;30.90;32.93;98510.53;5093539;28;20016;-46
2023/07/01 07:21:12;;;;;;;4.10;1.90;;;;;;;30.56;33.66;98512.53;5093416;28;20024;-46
2023/07/01 07:23:38;;;;;;;5.88;1.63;;;;;;;30.27;34.52;98513.47;5093446;28;20078;-46
2023/07/01 07:26:03;;;;;;;9.18;2.42;;;;;;;30.12;35.12;98514.88;5091997;28;20378;-46
2023/07/01 07:28:29;;;;;;;6.13;2.20;;;;;;;29.87;35.64;98516.75;5093274;28;20020;-46
2023/07/01 07:30:55;;;;;;;4.78;1.90;;;;;;;29.54;35.68;98505.84;5092964;28;20020;-46
2023/07/01 07:33:21;;;;;;;7.10;1.95;;;;;;;29.14;36.33;98511.69;5091981;28;20039;-46
2023/07/01 07:35:47;;;;;;;6.90;1.90;;;;;;;28.86;36.90;98514.84;5091823;28;20022;-46
2023/07/01 07:38:13;;;;;;;5.97;2.53;;;;;;;28.49;36.93;98514.47;5093292;28;20377;-46
2023/07/01 07:40:39;;;;;;;7.47;1.90;;;;;;;27.97;37.98;98504.63;5092978;28;20481;-46
2023/07/01 07:43:11;;;;;;;6.47;2.08;;;;;;;27.42;38.34;98513.31;5093006;28;20076;-45
2023/07/01 07:45:38;;;;;;;8.45;1.90;;;;;;;26.99;40.39;98503.25;5092929;28;20111;-46
2023/07/01 07:48:04;;;;;;;9.55;2.40;;;;;;;26.72;41.76;98501.56;5092901;28;20076;-46
2023/07/01 07:50:30;;;;;;;9.68;2.53;;;;;;;26.55;41.46;98500.38;5091581;28;20115;-46
2023/07/01 07:52:55;;;;;;;6.68;1.92;;;;;;;26.70;40.71;98505.38;5091504;28;20111;-46
2023/07/01 07:55:21;;;;;;;5.45;1.70;;;;;;;26.85;40.00;98495.28;5092773;28;20047;-46
2023/07/01 07:57:48;;;;;;;7.85;1.98;;;;;;;26.96;40.79;98496.56;5091337;28;20035;-46
2023/07/01 08:00:14;;;;;;;4.47;1.75;;;;;;;27.25;39.15;98487.16;5092691;28;20133;-46
2023/07/01 08:02:44;;;;;;;10.80;2.42;;;;;;;27.76;38.89;98482.88;5092667;28;20038;-45
2023/07/01 08:05:15;;;;;;;11.98;2.55;;;;;;;28.31;37.17;98485.97;5092915;28;20020;-46
2023/07/01 08:07:40;;;;;;;6.80;2.20;;;;;;;28.91;36.21;98481.44;5091316;28;20031;-46
2023/07/01 08:10:06;;;;;;;4.70;1.83;;;;;;;29.77;34.98;98474.66;5091203;28;20490;-46
2023/07/01 08:12:32;;;;;;;5.35;1.70;;;;;;;30.27;34.08;98473.66;5092532;28;20016;-46
2023/07/01 08:14:58;;;;;;;4.03;1.60;;;;;;;30.45;34.79;98474.25;5092420;28;20069;-46
2023/07/01 08:17:23;;;;;;;7.07;2.08;;;;;;;30.72;35.50;98472.00;5092581;28;20027;-46
2023/07/01 08:19:49;;;;;;;9.27;2.63;;;;;;;30.71;33.85;98475.03;5091898;28;20016;-46
2023/07/01 08:22:15;;;;;;;4.28;1.60;;;;;;;30.45;34.20;98470.78;5073909;28;20039;-46
2023/07/01 08:24:40;;;;;;;8.73;2.58;;;;;;;30.30;35.46;98477.63;5091032;28;20102;-46
2023/07/01 08:27:08;;;;;;;6.68;2.22;;;;;;;30.41;35.27;98478.78;5092303;28;20056;-46
2023/07/01 08:29:34;;;;;;;8.77;1.85;;;;;;;30.75;34.51;98473.28;5090947;28;20028;-46
2023/07/01 08:31:59;;;;;;;8.80;2.03;;;;;;;30.70;34.92;98479.69;5090623;28;20112;-46
2023/07/01 08:34:25;;;;;;;8.77;2.63;;;;;;;30.43;35.16;98475.75;5092273;28;20027;-46
2023/07/01 08:36:50;;;;;;;9.95;2.30;;;;;;;30.35;35.15;98474.72;5092073;28;20024;-46
2023/07/01 08:39:16;;;;;;;4.63;1.83;;;;;;;30.65;34.58;98469.88;5090872;28;20101;-46
2023/07/01 08:41:56;;;;;;;10.20;2.92;;;;;;;30.90;34.17;98466.38;5092151;28;20420;-46
2023/07/01 08:44:21;;;;;;;11.98;2.38;;;;;;;30.78;34.24;98467.16;5090808;28;20028;-46
2023/07/01 08:46:52;;;;;;;4.38;1.92;;;;;;;30.56;34.35;98468.41;5091968;28;20392;-46
2023/07/01 08:49:21;;;;;;;6.63;2.38;;;;;;;30.33;34.72;98465.34;5092050;28;20494;-46
2023/07/01 08:51:51;;;;;;;7.40;2.53;;;;;;;29.95;35.24;98467.16;5090720;28;20024;-46
2023/07/01 08:54:18;;;;;;;5.40;1.80;;;;;;;29.40;34.86;98465.53;5090749;28;20020;-46
2023/07/01 08:56:48;;;;;;;6.93;2.22;;;;;;;28.98;34.24;98466.31;5091715;28;20024;-46
2023/07/01 08:59:15;;;;;;;8.63;2.30;;;;;;;28.76;35.36;98463.91;5091883;28;20073;-46
2023/07/01 09:01:43;;;;;;;8.48;2.38;;;;;;;28.81;35.07;98459.09;5091819;28;20031;-46
2023/07/01 09:04:09;;;;;;;8.38;2.17;;;;;;;29.18;34.69;98462.06;5090560;28;20111;-46
2023/07/01 09:06:34;;;;;;;8.30;2.45;;;;;;;29.20;34.53;98464.44;5090523;28;20122;-46
2023/07/01 09:09:03;;;;;;;4.72;1.65;;;;;;;29.19;34.49;98460.16;5091779;28;20021;-46
2023/07/01 09:11:28;;;;;;;5.47;2.10;;;;;;;29.30;34.90;98455.13;5091742;28;20391;-46
2023/07/01 09:13:57;;;;;;;6.13;1.90;;;;;;;29.40;34.73;98458.25;5090423;28;20114;-46
2023/07/01 09:16:34;;;;;;;4.32;1.80;;;;;;;29.61;33.93;98455.50;5090336;28;20434;-46
2023/07/01 09:19:08;;;;;;;7.60;1.50;;;;;;;30.03;32.70;98458.16;5091677;28;20081;-46
2023/07/01 09:21:34;;;;;;;3.92;1.70;;;;;;;30.39;32.91;98447.75;5091692;28;20050;-46
2023/07/01 09:24:00;;;;;;;5.80;1.95;;;;;;;30.40;31.94;98444.69;5090371;28;20036;-46
2023/07/01 09:26:30;;;;;;;6.38;2.53;;;;;;;30.14;32.00;98447.66;5090297;28;20028;-46
2023/07/01 09:28:57;;;;;;;7.50;2.20;;;;;;;29.96;32.78;98454.41;5091476;28;20546;-46
2023/07/01 09:31:24;;;;;;;9.05;2.50;;;;;;;29.96;32.42;98440.88;5090451;28;20568;-46
2023/07/01 09:33:58;;;;;;;9.23;1.98;;;;;;;29.78;33.00;98446.50;5095589;28;20031;-46
2023/07/01 09:36:25;;;;;;;3.38;1.65;;;;;;;29.54;32.45;98449.88;5094133;28;20069;-46
2023/07/01 09:38:52;;;;;;;7.20;2.03;;;;;;;29.07;32.25;98450.03;5094085;28;20539;-46
2023/07/01 09:41:20;;;;;;;2.67;1.40;;;;;;;28.64;33.55;98449.19;5095395;28;20764;-46
2023/07/01 09:43:48;;;;;;;5.07;2.03;;;;;;;28.35;34.18;98449.91;5095355;28;20390;-46
2023/07/01 09:46:14;;;;;;;6.15;2.00;;;;;;;28.21;34.82;98447.44;5095250;28;20028;-45
2023/07/01 09:48:52;;;;;;;12.85;3.03;;;;;;;28.23;35.33;98447.91;5095241;28;20016;-46
2023/07/01 09:51:18;;;;;;;7.60;2.38;;;;;;;28.43;35.30;98451.81;5095269;28;20024;-46
2023/07/01 09:53:44;;;;;;;3.55;1.80;;;;;;;28.37;35.91;98450.41;5095185;28;20024;-46
2023/07/01 09:56:12;;;;;;;6.25;2.38;;;;;;;28.38;35.85;98448.47;5095062;28;20032;-46
2023/07/01 09:58:39;;;;;;;4.65;1.75;;;;;;;28.71;35.22;98445.97;5093720;28;20024;-46
2023/07/01 10:01:05;;;;;;;2.25;1.55;;;;;;;29.28;34.44;98445.47;5093672;28;20028;-46
2023/07/01 10:03:31;;;;;;;4.53;1.88;;;;;;;29.78;33.48;98440.25;5093703;28;20020;-46
2023/07/01 10:05:57;;;;;;;4.40;1.52;;;;;;;30.41;32.67;98440.88;5093729;28;20024;-46
2023/07/01 10:08:23;;;;;;;3.20;1.70;;;;;;;30.96;32.48;98435.22;5094895;28;20490;-46
2023/07/01 10:11:17;;;;;;;5.85;1.70;;;;;;;31.55;31.61;98433.81;5093531;28;20075;-46
2023/07/01 10:13:53;;;;;;;11.75;2.65;;;;;;;31.55;31.84;98429.19;5092764;28;20050;-46
2023/07/01 10:16:19;;;;;;;7.82;2.15;;;;;;;31.71;31.16;98423.00;5094562;28;20020;-46
2023/07/01 10:18:46;;;;;;;7.68;2.28;;;;;;;31.49;30.92;98424.34;5094683;28;20048;-46
2023/07/01 10:21:23;;;;;;;7.60;1.63;;;;;;;31.10;31.49;98421.28;5093276;28;20032;-46
2023/07/01 10:23:53;;;;;;;8.05;2.53;;;;;;;30.82;32.37;98422.00;5093256;28;20056;-46
2023/07/01 10:26:39;;;;;;;8.13;1.92;;;;;;;30.80;32.09;98419.63;5094525;28;20030;-46
2023/07/01 10:29:34;;;;;;;13.63;2.45;;;;;;;30.68;32.53;98411.50;5094367;28;20027;-46
2023/07/01 10:32:09;;;;;;;4.20;1.70;;;;;;;31.37;31.70;98417.81;5092889;28;20086;-46
2023/07/01 10:34:52;;;;;;;5.88;2.58;;;;;;;32.11;31.37;98414.75;5094161;28;20042;-46
2023/07/01 10:37:19;;;;;;;7.93;2.35;;;;;;;33.01;30.57;98405.94;5094282;28;20020;-46
2023/07/01 10:39:45;;;;;;;7.50;1.67;;;;;;;33.74;28.84;98407.00;5092910;28;20114;-46
2023/07/01 10:42:33;;;;;;;6.60;2.00;;;;;;;34.12;26.49;98402.59;5094184;28;20024;-46
2023/07/01 10:45:11;;;;;;;3.15;1.67;;;;;;;34.36;26.08;98400.66;5093778;28;20457;-46
2023/07/01 10:48:02;;;;;;;10.85;2.30;;;;;;;34.65;25.80;98399.16;5094152;28;20024;-46
2023/07/01 10:50:28;;;;;;;7.88;2.20;;;;;;;34.93;24.69;98403.44;5093953;28;20092;-46
2023/07/01 10:52:58;;;;;;;9.60;1.88;;;;;;;34.91;24.50;98406.53;5092721;28;20536;-46
2023/07/01 10:55:34;;;;;;;2.60;1.40;;;;;;;34.57;24.78;98402.91;5094201;28;20051;-46
2023/07/01 10:58:23;;;;;;;2.92;1.60;;;;;;;33.72;25.60;98405.81;5093783;28;20389;-46
2023/07/01 11:00:53;;;;;;;8.25;1.50;;;;;;;32.65;27.11;98418.75;5092479;28;20028;-46
2023/07/01 11:03:38;;;;;;;5.03;1.40;;;;;;;31.77;28.38;98421.59;5093825;28;20043;-46
2023/07/01 11:06:08;;;;;;;5.55;1.30;;;;;;;31.43;29.79;98419.16;5092436;28;20074;-46
2023/07/01 11:08:43;;;;;;;7.28;1.75;;;;;;;31.17;30.74;98419.56;5092429;28;20024;-46
2023/07/01 11:11:09;;;;;;;4.95;1.15;;;;;;;31.07;30.76;98420.06;5093733;28;20028;-46
2023/07/01 11:13:35;;;;;;;15.13;3.45;;;;;;;30.97;31.40;98415.91;5092271;28;20023;-46
2023/07/01 11:16:10;;;;;;;8.13;1.30;;;;;;;30.85;32.35;98408.56;5092249;28;20512;-46
2023/07/01 11:18:48;;;;;;;4.68;1.45;;;;;;;30.91;31.77;98414.56;5075383;28;20032;-46
2023/07/01 11:21:18;;;;;;;8.43;1.20;;;;;;;31.30;31.93;98417.59;5092122;28;20082;-46
2023/07/01 11:23:54;;;;;;;12.82;2.03;;;;;;;31.43;31.67;98419.16;5092165;28;20161;-46
2023/07/01 11:26:29;;;;;;;7.30;1.65;;;;;;;31.68;31.27;98413.63;5092070;28;20046;-46
2023/07/01 11:28:54;;;;;;;;;;;;;;;31.82;31.58;98416.72;5093721;28;20480;-46
2023/07/01 11:31:25;;;;;;;3.33;1.00;;;;;;;31.65;31.93;98415.13;5091846;28;19959;-46
2023/07/01 11:33:55;;;;;;;5.88;1.00;;;;;;;31.45;31.61;98414.19;5091970;28;20528;-46